Time;durP1;ratioP1;P1;durP2;ratioP2;P2;SDS_P1;SDS_P2;PMS_P1;PMS_P2;Temp;Humidity;BMP_temperature;BMP_pressure;BME280_temperature;BME280_humidity;BME280_pressure;Samples;Min_cycle;Max_cycle;Signal;HPM_P1;HPM_P2
2022/09/29 00:00:28;;;;;;;5.60;2.83;;;7.10;99.90;;;;;;5064091;28;20052;-74
2022/09/29 00:02:53;;;;;;;6.97;2.92;;;7.10;99.90;;;;;;5066337;28;20075;-73
2022/09/29 00:05:20;;;;;;;7.00;2.72;;;7.10;99.90;;;;;;5045334;28;20512;-73
2022/09/29 00:07:45;;;;;;;7.15;3.05;;;7.10;99.90;;;;;;5064386;28;20413;-73
2022/09/29 00:10:11;;;;;;;5.95;2.72;;;7.10;99.90;;;;;;5094741;27;20036;-72
2022/09/29 00:12:37;;;;;;;6.45;2.60;;;7.50;99.90;;;;;;5066697;28;20106;-73
2022/09/29 00:15:07;;;;;;;6.05;2.97;;;7.00;99.90;;;;;;5061481;28;20051;-73
2022/09/29 00:17:33;;;;;;;7.43;2.92;;;7.00;99.90;;;;;;5062958;28;20048;-72
2022/09/29 00:19:58;;;;;;;6.00;2.95;;;7.00;99.90;;;;;;5064408;28;20509;-72
2022/09/29 00:22:24;;;;;;;5.68;2.78;;;6.90;99.90;;;;;;5067608;28;20536;-73
2022/09/29 00:24:50;;;;;;;6.00;2.78;;;6.90;99.90;;;;;;5051197;28;20335;-72
2022/09/29 00:27:19;;;;;;;6.35;2.80;;;7.60;99.90;;;;;;5052987;28;20167;-73
2022/09/29 00:29:45;;;;;;;6.07;2.85;;;7.40;99.90;;;;;;5066293;28;20036;-74
2022/09/29 00:32:11;;;;;;;7.90;3.13;;;6.90;99.90;;;;;;5062687;28;20052;-73
2022/09/29 00:34:37;;;;;;;7.00;3.17;;;6.90;99.90;;;;;;5065541;28;20082;-73
2022/09/29 00:37:06;;;;;;;6.82;3.22;;;7.30;99.90;;;;;;5068715;28;20110;-72
2022/09/29 00:39:32;;;;;;;5.28;2.65;;;6.90;99.90;;;;;;5068463;28;20052;-73
2022/09/29 00:41:58;;;;;;;6.18;3.17;;;6.90;99.90;;;;;;5067030;28;20459;-73
2022/09/29 00:44:53;;;;;;;6.25;2.97;;;6.90;99.90;;;;;;5067541;28;20134;-72
2022/09/29 00:47:20;;;;;;;7.03;3.00;;;6.80;99.90;;;;;;5051177;28;20198;-73
2022/09/29 00:49:52;;;;;;;6.80;3.67;;;6.80;99.90;;;;;;5067036;28;20835;-73
2022/09/29 00:52:35;;;;;;;7.28;3.53;;;6.80;99.90;;;;;;5067269;28;20051;-73
2022/09/29 00:55:24;;;;;;;9.82;3.70;;;6.80;99.90;;;;;;5067259;28;20044;-73
2022/09/29 00:58:10;;;;;;;8.90;4.25;;;6.80;99.90;;;;;;5067391;28;20044;-73
2022/09/29 01:00:36;;;;;;;7.40;4.10;;;7.10;99.90;;;;;;5062834;28;20048;-72
2022/09/29 01:03:12;;;;;;;7.82;3.97;;;6.80;99.90;;;;;;5066465;28;20521;-72
2022/09/29 01:05:43;;;;;;;7.72;3.80;;;7.10;99.90;;;;;;5068128;28;20165;-73
2022/09/29 01:08:38;;;;;;;7.95;4.25;;;7.10;99.90;;;;;;5068608;28;20447;-73
2022/09/29 01:11:05;;;;;;;7.82;4.38;;;6.70;99.90;;;;;;5059274;28;20532;-73
2022/09/29 01:13:33;;;;;;;7.68;4.25;;;6.70;99.90;;;;;;5068825;28;20044;-74
2022/09/29 01:15:59;;;;;;;6.85;3.85;;;6.70;99.90;;;;;;5062236;28;20127;-72
2022/09/29 01:18:25;;;;;;;7.20;3.88;;;6.70;99.90;;;;;;5067256;28;20428;-73
2022/09/29 01:21:04;;;;;;;9.65;4.03;;;7.20;99.90;;;;;;5049293;28;20044;-71
2022/09/29 01:23:38;;;;;;;10.38;4.45;;;6.70;99.90;;;;;;5068418;28;20049;-73
2022/09/29 01:26:39;;;;;;;6.68;3.55;;;6.70;99.90;;;;;;5066935;28;20036;-74
2022/09/29 01:29:04;;;;;;;7.60;3.85;;;6.70;99.90;;;;;;5048661;28;20413;-73
2022/09/29 01:31:57;;;;;;;9.73;3.78;;;6.70;99.90;;;;;;5047507;28;20051;-74
2022/09/29 01:34:53;;;;;;;6.90;3.85;;;6.70;99.90;;;;;;5063538;28;20040;-73
2022/09/29 01:37:34;;;;;;;9.13;4.20;;;6.90;99.90;;;;;;5050942;28;20060;-73
2022/09/29 01:40:35;;;;;;;6.88;3.30;;;6.60;99.90;;;;;;5068367;28;20383;-73
2022/09/29 01:43:08;;;;;;;6.22;3.65;;;6.60;99.90;;;;;;5041846;28;20055;-73
2022/09/29 01:45:43;;;;;;;8.10;3.85;;;6.70;99.90;;;;;;5060851;28;20041;-72
2022/09/29 01:48:23;;;;;;;7.20;4.10;;;6.50;99.90;;;;;;5063942;28;20064;-72
2022/09/29 01:50:54;;;;;;;6.78;4.35;;;6.50;99.90;;;;;;5066046;28;20048;-73
2022/09/29 01:53:28;;;;;;;18.50;4.47;;;7.00;99.90;;;;;;5064484;28;20041;-73
2022/09/29 01:56:00;;;;;;;7.20;4.28;;;6.50;99.90;;;;;;5048323;28;20133;-73
2022/09/29 01:58:36;;;;;;;7.68;3.90;;;6.70;99.90;;;;;;5049784;28;20048;-73
2022/09/29 02:01:08;;;;;;;8.20;4.53;;;6.50;99.90;;;;;;5066070;28;20455;-72
2022/09/29 02:03:48;;;;;;;8.07;4.55;;;6.50;99.90;;;;;;5050944;28;20397;-69
2022/09/29 02:06:19;;;;;;;8.75;4.22;;;6.50;99.90;;;;;;5064564;28;20391;-71
2022/09/29 02:08:51;;;;;;;;;;;6.70;99.90;;;;;;5067452;28;21852;-67
2022/09/29 02:11:18;;;;;;;6.70;4.15;;;6.50;99.90;;;;;;5049677;28;20014;-67
2022/09/29 02:13:44;;;;;;;8.45;4.45;;;6.50;99.90;;;;;;5063816;28;20044;-68
2022/09/29 02:16:12;;;;;;;7.40;4.32;;;6.40;99.90;;;;;;5066425;28;20051;-68
2022/09/29 02:18:51;;;;;;;9.30;4.35;;;6.40;99.90;;;;;;5067447;28;20044;-68
2022/09/29 02:21:17;;;;;;;8.13;4.70;;;6.40;99.90;;;;;;5049034;28;20052;-68
2022/09/29 02:23:43;;;;;;;10.10;5.18;;;6.40;99.90;;;;;;5065127;28;20051;-68
2022/09/29 02:26:11;;;;;;;9.65;5.10;;;6.40;99.90;;;;;;5060439;28;20400;-68
2022/09/29 02:28:38;;;;;;;7.95;4.80;;;6.40;99.90;;;;;;5048557;28;20761;-68
2022/09/29 02:31:06;;;;;;;8.50;4.70;;;6.30;99.90;;;;;;5064080;28;20048;-68
2022/09/29 02:33:32;;;;;;;10.93;5.28;;;6.30;99.90;;;;;;5066253;28;20044;-68
2022/09/29 02:36:06;;;;;;;8.60;5.18;;;6.30;99.90;;;;;;5047227;28;20055;-68
2022/09/29 02:38:53;;;;;;;9.95;5.13;;;6.30;99.90;;;;;;5066785;28;20040;-68
2022/09/29 02:41:34;;;;;;;9.52;4.82;;;6.30;99.90;;;;;;5065324;28;20056;-68
2022/09/29 02:44:44;;;;;;;10.93;5.50;;;6.30;99.90;;;;;;5064041;28;20441;-69
2022/09/29 02:47:42;;;;;;;8.65;5.38;;;6.20;99.90;;;;;;5053502;28;20401;-68
2022/09/29 02:50:10;;;;;;;8.32;4.70;;;6.20;99.90;;;;;;5055755;28;20053;-68
2022/09/29 02:52:42;;;;;;;8.48;5.38;;;6.20;99.90;;;;;;5049392;28;20075;-69
2022/09/29 02:55:10;;;;;;;;;;;6.20;99.90;;;;;;5051939;28;20133;-69
2022/09/29 02:57:57;;;;;;;9.10;5.50;;;6.20;99.90;;;;;;5049308;28;19924;-69
2022/09/29 03:00:25;;;;;;;9.20;5.40;;;6.20;99.90;;;;;;5078348;28;20054;-69
2022/09/29 03:02:51;;;;;;;7.68;4.75;;;6.20;99.90;;;;;;5045986;28;20066;-69
2022/09/29 03:05:19;;;;;;;8.23;5.65;;;6.10;99.90;;;;;;5065242;28;20044;-68
2022/09/29 03:07:45;;;;;;;8.85;5.70;;;6.20;99.90;;;;;;5064878;28;20079;-68
2022/09/29 03:10:12;;;;;;;8.93;5.63;;;6.20;99.90;;;;;;5064727;28;20059;-68
2022/09/29 03:12:38;;;;;;;9.18;5.25;;;6.10;99.90;;;;;;5058812;28;20382;-68
2022/09/29 03:15:06;;;;;;;8.68;5.18;;;6.10;99.90;;;;;;5042699;28;20036;-68
2022/09/29 03:17:32;;;;;;;8.65;5.63;;;6.10;99.90;;;;;;5046610;28;20048;-69
2022/09/29 03:19:58;;;;;;;10.02;5.47;;;6.40;99.90;;;;;;5046113;28;20487;-69
2022/09/29 03:22:24;;;;;;;9.00;5.65;;;6.10;99.90;;;;;;5066368;28;20515;-69
2022/09/29 03:24:50;;;;;;;9.40;5.40;;;6.10;99.90;;;;;;5061199;28;20032;-67
2022/09/29 03:27:16;;;;;;;8.30;5.10;;;6.70;99.90;;;;;;5062193;28;20098;-68
2022/09/29 03:29:42;;;;;;;8.90;5.65;;;6.10;99.90;;;;;;5036332;28;20128;-67
2022/09/29 03:32:08;;;;;;;8.50;5.53;;;6.00;99.90;;;;;;5053291;28;20143;-67
2022/09/29 03:34:37;;;;;;;8.98;5.40;;;6.10;99.90;;;;;;5060279;28;20404;-68
2022/09/29 03:37:06;;;;;;;11.27;4.95;;;6.40;99.90;;;;;;5045036;28;20127;-68
2022/09/29 03:39:32;;;;;;;9.50;5.15;;;6.40;99.90;;;;;;5048825;28;20070;-68
2022/09/29 03:41:57;;;;;;;8.85;4.97;;;6.00;99.90;;;;;;5054095;28;20097;-67
2022/09/29 03:44:23;;;;;;;8.27;4.78;;;6.00;99.90;;;;;;5047474;28;20037;-68
2022/09/29 03:46:49;;;;;;;8.90;5.38;;;6.00;99.90;;;;;;5041891;28;20448;-68
2022/09/29 03:49:15;;;;;;;9.25;5.45;;;6.60;99.90;;;;;;5061496;28;20067;-68
2022/09/29 03:51:41;;;;;;;8.02;5.50;;;6.00;99.90;;;;;;5045462;28;20378;-68
2022/09/29 03:54:08;;;;;;;8.48;5.22;;;5.70;99.90;;;;;;5064130;28;20123;-68
2022/09/29 03:56:37;;;;;;;9.40;5.50;;;6.00;99.90;;;;;;5066967;28;20144;-68
2022/09/29 03:59:09;;;;;;;9.10;5.35;;;6.00;99.90;;;;;;5066255;28;20072;-68
2022/09/29 04:01:36;;;;;;;8.13;5.07;;;6.00;99.90;;;;;;5064710;28;20050;-68
2022/09/29 04:04:05;;;;;;;9.75;5.45;;;5.90;99.90;;;;;;5060449;28;20326;-68
2022/09/29 04:06:31;;;;;;;9.05;6.20;;;6.00;99.90;;;;;;5043696;28;20044;-69
2022/09/29 04:08:57;;;;;;;8.05;4.97;;;5.90;99.90;;;;;;5065421;28;20047;-69
2022/09/29 04:11:23;;;;;;;10.80;5.45;;;5.90;99.90;;;;;;5048429;28;20067;-68
2022/09/29 04:13:48;;;;;;;7.53;4.82;;;6.00;99.90;;;;;;5060250;28;20059;-68
2022/09/29 04:16:14;;;;;;;8.90;4.97;;;5.90;99.90;;;;;;5064119;28;20101;-68
2022/09/29 04:18:40;;;;;;;8.70;5.05;;;5.90;99.90;;;;;;5047025;28;20327;-68
2022/09/29 04:21:07;;;;;;;8.93;5.00;;;5.80;99.90;;;;;;5046337;28;20461;-68
2022/09/29 04:23:33;;;;;;;7.68;5.30;;;5.80;99.90;;;;;;5065325;28;20080;-67
2022/09/29 04:26:00;;;;;;;8.55;5.72;;;6.00;99.90;;;;;;5063193;28;20083;-67
2022/09/29 04:28:27;;;;;;;8.75;5.95;;;5.80;99.90;;;;;;5046970;28;20063;-68
2022/09/29 04:30:52;;;;;;;12.93;6.78;;;5.80;99.90;;;;;;5066757;28;20123;-67
2022/09/29 04:33:18;;;;;;;11.10;7.40;;;5.80;99.90;;;;;;5047507;28;20127;-67
2022/09/29 04:35:45;;;;;;;13.95;7.07;;;5.80;99.90;;;;;;5045781;28;20291;-67
2022/09/29 04:38:11;;;;;;;11.05;6.63;;;5.80;99.90;;;;;;5063759;28;20060;-68
2022/09/29 04:40:37;;;;;;;10.90;7.05;;;5.80;99.90;;;;;;5050088;28;20040;-68
2022/09/29 04:43:03;;;;;;;14.88;7.90;;;5.80;99.90;;;;;;5067150;28;20527;-68
2022/09/29 04:45:29;;;;;;;10.23;7.45;;;5.90;99.90;;;;;;5066916;28;20401;-67
2022/09/29 04:47:55;;;;;;;16.30;8.55;;;6.00;99.90;;;;;;5067047;28;20037;-67
2022/09/29 04:50:21;;;;;;;13.50;8.68;;;5.80;99.90;;;;;;5066766;28;20459;-67
2022/09/29 04:52:47;;;;;;;16.33;9.30;;;5.80;99.90;;;;;;5068207;28;20121;-68
2022/09/29 04:55:13;;;;;;;14.95;9.05;;;5.80;99.90;;;;;;5062011;28;20056;-68
2022/09/29 04:57:42;;;;;;;15.82;9.55;;;6.00;99.90;;;;;;5055223;28;20040;-67
2022/09/29 05:00:08;;;;;;;16.27;9.23;;;5.90;99.90;;;;;;5054030;28;20118;-69
2022/09/29 05:02:34;;;;;;;13.10;8.65;;;5.80;99.90;;;;;;5058182;28;20040;-68
2022/09/29 05:05:01;;;;;;;13.65;8.50;;;5.80;99.90;;;;;;5063854;28;20102;-69
2022/09/29 05:07:27;;;;;;;12.75;8.98;;;5.80;99.90;;;;;;5058132;28;20041;-67
2022/09/29 05:09:52;;;;;;;13.32;8.80;;;5.80;99.90;;;;;;5043768;28;20047;-67
2022/09/29 05:12:19;;;;;;;14.57;9.05;;;5.70;99.90;;;;;;5063095;28;20057;-68
2022/09/29 05:14:46;;;;;;;12.95;8.52;;;5.80;99.90;;;;;;5079558;28;20032;-68
2022/09/29 05:17:12;;;;;;;13.93;8.57;;;5.80;99.90;;;;;;5047791;28;20105;-69
2022/09/29 05:19:38;;;;;;;13.25;9.00;;;5.70;99.90;;;;;;5060570;28;20080;-68
2022/09/29 05:22:07;;;;;;;15.30;8.85;;;6.20;99.90;;;;;;5057475;28;20065;-69
2022/09/29 05:24:32;;;;;;;13.50;9.20;;;5.70;99.90;;;;;;5075678;28;20456;-67
2022/09/29 05:26:58;;;;;;;13.77;9.35;;;5.70;99.90;;;;;;5048465;28;20040;-67
2022/09/29 05:29:24;;;;;;;12.02;8.10;;;5.70;99.90;;;;;;5055426;28;20331;-68
2022/09/29 05:31:50;;;;;;;13.32;9.13;;;5.70;99.90;;;;;;5052543;28;20044;-68
2022/09/29 05:34:16;;;;;;;12.18;8.32;;;5.70;99.90;;;;;;5045702;28;20131;-68
2022/09/29 05:36:43;;;;;;;11.95;8.38;;;5.70;99.90;;;;;;5056044;28;20076;-68
2022/09/29 05:39:09;;;;;;;13.07;8.30;;;5.70;99.90;;;;;;5059222;28;20469;-68
2022/09/29 05:41:35;;;;;;;12.40;8.45;;;5.70;99.90;;;;;;5059933;28;20043;-69
2022/09/29 05:44:00;;;;;;;10.50;7.43;;;6.40;99.90;;;;;;5059555;28;20439;-68
2022/09/29 05:46:26;;;;;;;10.93;7.97;;;6.10;99.90;;;;;;5065455;28;20072;-68
2022/09/29 05:48:52;;;;;;;11.73;8.07;;;5.70;99.90;;;;;;5062115;28;20044;-68
2022/09/29 05:51:21;;;;;;;10.63;7.30;;;5.70;99.90;;;;;;5050910;28;20727;-68
2022/09/29 05:53:47;;;;;;;11.95;8.10;;;5.60;99.90;;;;;;5060465;28;20119;-68
2022/09/29 05:56:21;;;;;;;11.75;8.82;;;5.60;99.90;;;;;;5064269;28;20111;-69
2022/09/29 05:58:47;;;;;;;11.48;7.78;;;5.70;99.90;;;;;;5044028;28;20132;-67
2022/09/29 06:01:19;;;;;;;10.50;7.68;;;5.70;99.90;;;;;;5049227;28;20148;-67
2022/09/29 06:03:44;;;;;;;;;;;5.70;99.90;;;;;;5054850;28;20484;-67
2022/09/29 06:06:12;;;;;;;10.88;7.60;;;5.70;99.90;;;;;;5063621;28;19977;-68
2022/09/29 06:08:38;;;;;;;12.75;7.38;;;5.70;99.90;;;;;;5063250;28;20166;-67
2022/09/29 06:11:10;;;;;;;12.18;8.00;;;5.70;99.90;;;;;;5063051;28;20128;-67
2022/09/29 06:13:40;;;;;;;;;;;5.70;99.90;;;;;;5058551;28;20540;-68
2022/09/29 06:16:06;;;;;;;10.98;7.47;;;5.70;99.90;;;;;;5042305;28;19928;-68
2022/09/29 06:18:32;;;;;;;11.27;7.22;;;5.70;99.90;;;;;;5067598;28;20498;-66
2022/09/29 06:21:12;;;;;;;11.23;7.90;;;5.70;99.90;;;;;;5060685;28;20408;-67
2022/09/29 06:23:38;;;;;;;11.00;7.35;;;5.80;99.90;;;;;;5043122;28;20158;-67
2022/09/29 06:26:07;;;;;;;11.20;7.53;;;6.50;99.90;;;;;;5059635;28;20079;-69
2022/09/29 06:28:33;;;;;;;12.25;7.82;;;5.70;99.90;;;;;;5063064;28;20084;-68
2022/09/29 06:31:02;;;;;;;10.35;7.88;;;5.80;99.90;;;;;;5056211;28;20047;-65
2022/09/29 06:33:28;;;;;;;13.25;8.88;;;5.80;99.90;;;;;;5065206;28;20545;-68
2022/09/29 06:38:38;;;;;;;12.48;8.48;;;5.90;99.90;;;;;;5062955;28;20056;-67
2022/09/29 06:41:06;;;;;;;10.73;7.97;;;6.40;99.90;;;;;;5060894;28;20036;-67
2022/09/29 06:43:31;;;;;;;12.23;8.15;;;6.10;99.90;;;;;;5067187;28;20576;-67
2022/09/29 06:45:58;;;;;;;13.27;8.43;;;6.00;99.90;;;;;;5045266;28;20040;-67
2022/09/29 06:48:23;;;;;;;11.68;8.25;;;6.00;99.90;;;;;;5044694;28;20074;-67
2022/09/29 06:50:49;;;;;;;13.68;9.27;;;6.00;99.90;;;;;;5046986;28;20040;-66
2022/09/29 06:53:15;;;;;;;14.02;8.63;;;6.30;99.90;;;;;;5066153;28;20048;-67
2022/09/29 06:55:41;;;;;;;15.25;9.75;;;6.10;99.90;;;;;;5060322;28;20049;-67
2022/09/29 06:58:07;;;;;;;14.13;9.50;;;6.80;99.90;;;;;;5067177;28;20443;-67
2022/09/29 07:00:33;;;;;;;24.52;9.43;;;6.20;99.90;;;;;;5065045;28;20432;-67
2022/09/29 07:02:59;;;;;;;14.40;9.50;;;6.50;99.90;;;;;;5059236;28;20171;-67
2022/09/29 07:05:25;;;;;;;13.77;9.57;;;6.90;99.90;;;;;;5061055;28;20505;-67
2022/09/29 07:07:51;;;;;;;12.45;9.27;;;6.50;99.90;;;;;;5062300;28;20366;-67
2022/09/29 07:10:17;;;;;;;12.63;8.52;;;6.70;99.90;;;;;;5065707;28;20406;-67
2022/09/29 07:12:45;;;;;;;11.82;8.30;;;6.80;99.90;;;;;;5057310;28;20052;-67
2022/09/29 07:15:12;;;;;;;12.13;8.20;;;6.90;99.90;;;;;;5062121;28;20130;-68
2022/09/29 07:17:39;;;;;;;11.02;7.82;;;7.10;99.90;;;;;;5063639;28;20059;-68
2022/09/29 07:20:08;;;;;;;11.90;8.05;;;7.10;99.90;;;;;;5059593;28;20053;-68
2022/09/29 07:22:33;;;;;;;12.52;8.27;;;7.30;99.90;;;;;;5040343;28;20033;-68
2022/09/29 07:24:59;;;;;;;12.65;8.35;;;7.40;99.90;;;;;;5063439;28;20067;-68
2022/09/29 07:27:25;;;;;;;12.43;8.15;;;7.50;99.90;;;;;;5063782;28;20052;-67
2022/09/29 07:29:51;;;;;;;11.98;9.40;;;7.70;99.90;;;;;;5063300;28;20052;-68
2022/09/29 07:32:17;;;;;;;14.27;8.55;;;7.90;99.90;;;;;;5046837;28;20071;-67
2022/09/29 07:34:43;;;;;;;11.23;7.93;;;7.90;99.90;;;;;;5063614;28;20066;-66
2022/09/29 07:37:10;;;;;;;11.98;8.77;;;8.40;99.90;;;;;;5061290;28;20045;-68
2022/09/29 07:39:35;;;;;;;13.27;8.55;;;8.20;99.90;;;;;;5061624;28;20101;-68
2022/09/29 07:42:02;;;;;;;14.60;8.63;;;8.30;99.90;;;;;;5064557;28;20040;-68
2022/09/29 07:44:30;;;;;;;13.52;9.32;;;8.40;99.90;;;;;;5061296;28;20547;-67
2022/09/29 07:46:56;;;;;;;12.40;8.27;;;8.60;99.90;;;;;;5062956;28;20505;-68
2022/09/29 07:49:22;;;;;;;11.70;8.43;;;8.70;99.90;;;;;;5094778;28;20036;-67
2022/09/29 07:51:48;;;;;;;13.00;8.70;;;8.80;99.90;;;;;;5061716;28;20040;-68
2022/09/29 07:54:14;;;;;;;12.60;7.95;;;9.00;99.90;;;;;;5065187;28;20352;-68
2022/09/29 07:56:39;;;;;;;11.27;8.02;;;9.10;99.90;;;;;;5065504;28;20480;-68
2022/09/29 07:59:05;;;;;;;13.07;8.88;;;9.20;99.90;;;;;;5039839;28;20081;-68
2022/09/29 08:01:31;;;;;;;14.57;8.68;;;9.40;99.90;;;;;;5064361;28;20120;-69
2022/09/29 08:03:57;;;;;;;14.75;9.68;;;9.50;99.90;;;;;;5060966;28;20190;-69
2022/09/29 08:06:25;;;;;;;13.18;9.30;;;9.70;99.90;;;;;;5060047;28;20049;-69
2022/09/29 08:08:51;;;;;;;14.00;9.95;;;9.80;99.90;;;;;;5081003;28;20076;-69
2022/09/29 08:11:19;;;;;;;16.27;9.93;;;10.00;99.90;;;;;;5065569;28;20137;-69
2022/09/29 08:13:45;;;;;;;18.15;10.57;;;10.10;99.90;;;;;;5089132;28;20618;-68
2022/09/29 08:16:13;;;;;;;14.65;9.82;;;10.20;99.90;;;;;;5044963;28;20056;-68
2022/09/29 08:18:39;;;;;;;16.10;10.15;;;10.30;99.90;;;;;;5061290;28;20056;-68
2022/09/29 08:21:06;;;;;;;14.63;9.60;;;10.40;99.90;;;;;;5061129;28;20068;-67
2022/09/29 08:23:39;;;;;;;16.20;10.82;;;10.50;99.90;;;;;;5058946;28;20052;-68
2022/09/29 08:26:11;;;;;;;13.88;10.02;;;10.60;99.90;;;;;;5042893;28;20428;-69
2022/09/29 08:28:38;;;;;;;14.88;11.27;;;10.70;99.90;;;;;;5066386;28;20033;-68
2022/09/29 08:31:07;;;;;;;13.63;10.75;;;10.80;99.90;;;;;;5040277;28;20179;-68
2022/09/29 08:33:33;;;;;;;13.82;10.13;;;10.90;99.90;;;;;;5057543;28;20056;-68
2022/09/29 08:36:00;;;;;;;15.40;11.02;;;11.00;99.90;;;;;;5044945;28;20040;-67
2022/09/29 08:38:26;;;;;;;14.45;10.80;;;11.10;99.90;;;;;;5065861;28;20123;-69
2022/09/29 08:40:55;;;;;;;14.80;10.75;;;11.20;99.90;;;;;;5062899;28;20547;-69
2022/09/29 08:43:49;;;;;;;15.63;10.85;;;11.30;99.90;;;;;;5055260;28;20057;-69
2022/09/29 08:46:27;;;;;;;15.13;9.80;;;11.50;99.90;;;;;;5060525;28;20114;-69
2022/09/29 08:48:55;;;;;;;15.43;11.57;;;11.60;99.90;;;;;;5062276;28;20101;-68
2022/09/29 08:51:36;;;;;;;13.30;10.20;;;11.70;99.90;;;;;;5057601;28;20048;-68
2022/09/29 08:54:14;;;;;;;16.35;10.23;;;11.70;99.90;;;;;;5066154;28;20045;-68
2022/09/29 08:56:39;;;;;;;15.57;10.07;;;11.80;99.90;;;;;;5084459;28;20061;-69
2022/09/29 08:59:09;;;;;;;15.52;10.60;;;11.90;99.90;;;;;;5066508;28;20041;-68
2022/09/29 09:01:52;;;;;;;12.18;9.48;;;11.90;99.90;;;;;;5063345;28;20552;-68
2022/09/29 09:04:36;;;;;;;12.73;8.98;;;12.10;99.90;;;;;;5043906;28;20111;-69
2022/09/29 09:07:07;;;;;;;13.73;8.90;;;12.10;99.90;;;;;;5060099;28;20037;-69
2022/09/29 09:10:11;;;;;;;13.43;8.93;;;12.20;99.90;;;;;;5049211;28;20045;-69
2022/09/29 09:12:54;;;;;;;12.85;9.13;;;12.20;99.90;;;;;;5046572;28;20068;-69
2022/09/29 09:15:38;;;;;;;15.05;8.57;;;12.30;99.90;;;;;;5056406;28;20048;-69
2022/09/29 09:18:35;;;;;;;13.63;8.73;;;12.30;99.90;;;;;;5065567;28;20064;-69
2022/09/29 09:21:07;;;;;;;12.65;7.85;;;12.40;99.90;;;;;;5052474;28;20445;-69
2022/09/29 09:23:54;;;;;;;12.35;7.85;;;12.50;99.90;;;;;;5059726;28;20098;-69
2022/09/29 09:26:36;;;;;;;13.30;8.07;;;12.60;99.90;;;;;;5062373;28;20124;-70
2022/09/29 09:29:28;;;;;;;10.85;7.88;;;12.60;99.90;;;;;;5067470;28;20090;-70
2022/09/29 09:31:56;;;;;;;11.00;6.45;;;12.70;99.90;;;;;;5066676;28;20128;-69
2022/09/29 09:34:31;;;;;;;9.43;5.88;;;13.00;99.90;;;;;;5066590;28;20645;-69
2022/09/29 09:37:02;;;;;;;10.23;4.88;;;12.80;99.90;;;;;;5043115;28;20429;-69
2022/09/29 09:39:35;;;;;;;8.23;4.90;;;12.90;99.90;;;;;;5069007;28;20051;-69
2022/09/29 09:42:07;;;;;;;7.45;4.20;;;12.90;99.90;;;;;;5065970;28;20128;-69
2022/09/29 09:44:39;;;;;;;7.18;3.65;;;12.90;99.90;;;;;;5066840;28;20466;-69
2022/09/29 09:47:20;;;;;;;6.90;3.33;;;12.90;99.90;;;;;;5062217;28;20483;-69
2022/09/29 09:49:51;;;;;;;5.78;2.95;;;12.90;99.90;;;;;;5062373;28;20040;-70
2022/09/29 09:52:19;;;;;;;5.45;2.72;;;12.90;99.90;;;;;;5061286;28;20060;-69
2022/09/29 09:54:50;;;;;;;6.95;2.95;;;13.00;99.90;;;;;;5060278;28;20543;-69
2022/09/29 09:57:34;;;;;;;5.78;2.80;;;12.90;99.90;;;;;;5057591;28;20055;-70
2022/09/29 10:00:13;;;;;;;5.40;2.70;;;12.90;99.90;;;;;;5063184;28;20052;-69
2022/09/29 10:02:42;;;;;;;6.13;2.80;;;12.90;99.90;;;;;;5054974;28;20058;-69
2022/09/29 10:05:11;;;;;;;7.68;3.80;;;13.00;99.90;;;;;;5064186;28;20048;-70
2022/09/29 10:07:37;;;;;;;8.98;3.83;;;13.00;99.90;;;;;;5045031;28;20040;-69
2022/09/29 10:10:13;;;;;;;6.32;3.50;;;13.10;99.90;;;;;;5060767;28;20048;-69
2022/09/29 10:12:38;;;;;;;7.00;3.65;;;13.10;99.90;;;;;;5087916;28;20048;-69
2022/09/29 10:15:16;;;;;;;8.05;3.50;;;13.20;99.90;;;;;;5058996;28;20123;-70
2022/09/29 10:17:47;;;;;;;5.25;2.80;;;13.30;99.90;;;;;;5079503;28;20052;-70
2022/09/29 10:20:12;;;;;;;6.03;3.22;;;13.30;99.90;;;;;;5063736;28;20056;-70
2022/09/29 10:22:39;;;;;;;5.32;2.67;;;13.50;99.90;;;;;;5063765;28;20044;-69
2022/09/29 10:25:11;;;;;;;7.03;3.55;;;13.50;99.90;;;;;;5064730;28;20405;-69
2022/09/29 10:27:42;;;;;;;6.30;3.10;;;13.50;99.90;;;;;;5060331;28;20048;-69
2022/09/29 10:30:28;;;;;;;5.50;2.92;;;13.60;99.90;;;;;;5060745;28;20045;-70
2022/09/29 10:32:59;;;;;;;7.07;3.30;;;13.60;99.90;;;;;;5045429;28;20123;-70
2022/09/29 10:35:27;;;;;;;;;;;13.60;99.90;;;;;;5065091;28;20127;-69
2022/09/29 10:38:06;;;;;;;6.32;3.40;;;13.70;99.90;;;;;;5064419;28;19920;-69
2022/09/29 10:40:34;;;;;;;5.70;3.20;;;13.70;99.90;;;;;;5062180;28;20037;-70
2022/09/29 10:43:22;;;;;;;6.15;3.03;;;13.70;99.90;;;;;;5055328;28;20745;-70
2022/09/29 10:45:48;;;;;;;5.55;3.17;;;13.70;99.90;;;;;;5060051;28;20382;-70
2022/09/29 10:48:14;;;;;;;5.00;2.80;;;13.80;99.90;;;;;;5044906;28;20083;-70
2022/09/29 10:50:48;;;;;;;4.68;2.45;;;13.80;99.90;;;;;;5042461;28;20517;-70
2022/09/29 10:53:40;;;;;;;7.40;2.85;;;13.80;99.90;;;;;;5037938;28;20125;-70
2022/09/29 10:56:19;;;;;;;6.53;2.42;;;13.80;99.90;;;;;;5058291;28;20096;-70
2022/09/29 10:58:57;;;;;;;4.47;2.20;;;13.90;99.90;;;;;;5058073;28;20682;-70
2022/09/29 11:01:26;;;;;;;4.88;1.80;;;14.00;99.90;;;;;;5056336;28;20509;-70
2022/09/29 11:04:14;;;;;;;4.28;2.08;;;14.00;99.90;;;;;;5057591;28;20505;-70
2022/09/29 11:06:40;;;;;;;4.78;1.90;;;14.00;99.90;;;;;;5061033;28;20044;-70
2022/09/29 11:09:12;;;;;;;5.10;2.10;;;14.00;99.90;;;;;;5088682;28;20055;-70
2022/09/29 11:11:52;;;;;;;4.40;2.08;;;14.10;99.90;;;;;;5045180;28;20288;-69
2022/09/29 11:14:34;;;;;;;2.97;1.40;;;14.10;99.90;;;;;;5064328;28;20037;-70
2022/09/29 11:17:24;;;;;;;5.47;1.77;;;14.20;99.90;;;;;;5059542;28;20592;-70
2022/09/29 11:19:52;;;;;;;3.08;1.38;;;14.30;99.90;;;;;;5048196;28;20044;-70
2022/09/29 11:22:56;;;;;;;3.30;1.50;;;14.40;99.90;;;;;;5041208;28;20040;-69
2022/09/29 11:25:31;;;;;;;3.70;1.30;;;14.40;99.90;;;;;;5064465;28;20406;-70
2022/09/29 11:28:32;;;;;;;3.92;1.50;;;14.40;99.90;;;;;;5088682;28;20077;-70
2022/09/29 11:31:20;;;;;;;3.50;1.48;;;14.50;99.90;;;;;;5022075;28;20044;-70
2022/09/29 11:34:01;;;;;;;4.53;1.40;;;14.40;99.90;;;;;;5051791;28;20151;-70
2022/09/29 11:36:45;;;;;;;2.92;1.33;;;14.40;99.90;;;;;;5064167;28;20508;-70
2022/09/29 11:39:37;;;;;;;3.67;1.15;;;14.40;99.90;;;;;;5062964;28;20052;-69
2022/09/29 11:42:28;;;;;;;2.40;1.17;;;14.50;99.90;;;;;;5043764;28;20048;-69
2022/09/29 11:44:58;;;;;;;2.63;1.20;;;14.50;99.90;;;;;;5062715;28;20048;-69
2022/09/29 11:47:53;;;;;;;3.08;1.50;;;14.60;99.90;;;;;;5066194;28;20056;-70
2022/09/29 11:50:37;;;;;;;3.28;1.50;;;14.60;99.90;;;;;;5064380;28;20131;-70
2022/09/29 11:53:27;;;;;;;3.08;1.52;;;14.70;99.90;;;;;;5061752;28;20056;-70
2022/09/29 11:56:02;;;;;;;4.60;1.88;;;14.80;99.90;;;;;;5064201;28;20041;-70
2022/09/29 11:58:37;;;;;;;4.45;1.77;;;14.80;99.90;;;;;;5064498;28;20056;-70
2022/09/29 12:01:28;;;;;;;2.95;1.30;;;14.80;99.90;;;;;;5060530;28;20568;-70
2022/09/29 12:04:22;;;;;;;2.88;1.00;;;14.90;99.90;;;;;;5087392;28;20060;-70
2022/09/29 12:07:14;;;;;;;1.95;0.80;;;14.90;99.90;;;;;;5063493;28;20184;-70
2022/09/29 12:10:10;;;;;;;1.88;0.82;;;15.10;99.90;;;;;;5047193;28;20532;-70
2022/09/29 12:13:00;;;;;;;1.88;0.80;;;15.10;99.90;;;;;;5045171;28;20095;-70
2022/09/29 12:15:55;;;;;;;2.22;0.85;;;15.00;99.90;;;;;;5064727;28;20048;-70
2022/09/29 12:18:39;;;;;;;2.72;0.93;;;15.00;99.90;;;;;;5056052;28;20554;-70
2022/09/29 12:21:09;;;;;;;1.85;0.90;;;14.90;99.90;;;;;;5060750;28;20520;-70
2022/09/29 12:23:37;;;;;;;2.15;0.73;;;14.90;99.90;;;;;;5092367;28;20098;-70
2022/09/29 12:26:20;;;;;;;2.47;0.70;;;14.80;99.90;;;;;;5063558;28;20106;-70
2022/09/29 12:28:49;;;;;;;3.03;0.90;;;14.80;99.90;;;;;;5045429;28;20494;-70
2022/09/29 12:31:24;;;;;;;1.27;0.57;;;14.80;99.90;;;;;;5089845;28;20053;-69
2022/09/29 12:34:05;;;;;;;1.80;0.82;;;14.80;99.90;;;;;;5061611;28;20103;-69
2022/09/29 12:37:05;;;;;;;2.25;0.68;;;14.70;99.90;;;;;;5056411;28;20057;-70
2022/09/29 12:40:09;;;;;;;1.73;0.65;;;14.70;99.90;;;;;;5037638;28;20084;-70
2022/09/29 12:43:03;;;;;;;1.50;0.60;;;14.70;99.90;;;;;;5042653;28;20501;-70
2022/09/29 12:46:02;;;;;;;1.90;0.70;;;14.80;99.90;;;;;;5089416;28;20041;-69
2022/09/29 12:48:50;;;;;;;3.15;0.60;;;14.90;99.90;;;;;;5054367;28;20071;-70
2022/09/29 12:51:35;;;;;;;1.92;0.70;;;15.00;99.90;;;;;;5057921;28;20106;-70
2022/09/29 12:54:19;;;;;;;1.08;0.60;;;15.00;99.90;;;;;;5059445;28;20037;-70
2022/09/29 12:56:57;;;;;;;1.85;0.60;;;15.00;99.90;;;;;;5059889;28;20106;-70
2022/09/29 12:59:42;;;;;;;2.10;0.60;;;15.00;99.90;;;;;;5063337;28;20091;-69
2022/09/29 13:02:33;;;;;;;1.95;0.80;;;15.00;99.90;;;;;;5063274;28;20048;-70
2022/09/29 13:05:23;;;;;;;1.92;0.80;;;14.90;99.90;;;;;;5062165;28;20064;-69
2022/09/29 13:08:26;;;;;;;3.30;0.77;;;14.80;99.90;;;;;;5060262;28;20608;-70
2022/09/29 13:11:27;;;;;;;2.88;0.80;;;14.80;99.90;;;;;;5076760;28;20057;-70
2022/09/29 13:14:20;;;;;;;3.08;1.13;;;14.80;99.90;;;;;;5056853;28;20036;-70
2022/09/29 13:17:09;;;;;;;4.63;1.13;;;14.70;99.90;;;;;;5061205;28;20091;-70
2022/09/29 13:20:05;;;;;;;2.13;1.00;;;14.70;99.90;;;;;;5047316;28;20040;-69
2022/09/29 13:22:59;;;;;;;1.90;0.90;;;14.70;99.90;;;;;;5046855;28;20048;-70